createdAt,value
2022-12-08T00:00:33.293Z,-4.97
2022-12-08T00:01:33.260Z,-4.93
2022-12-08T00:02:33.394Z,-5.03
2022-12-08T00:03:33.536Z,-5.08
2022-12-08T00:04:33.232Z,-5.11
2022-12-08T00:05:33.222Z,-5.25
2022-12-08T00:06:33.223Z,-5.27
2022-12-08T00:07:33.225Z,-5.28
2022-12-08T00:08:33.192Z,-5.33
2022-12-08T00:09:38.307Z,-5.34
2022-12-08T00:10:48.994Z,-5.38
2022-12-08T00:11:34.174Z,-5.28
2022-12-08T00:12:33.162Z,-5.25
2022-12-08T00:13:33.141Z,-5.17
2022-12-08T00:14:33.125Z,-5.09
2022-12-08T00:15:33.118Z,-5.01
2022-12-08T00:16:33.203Z,-5.11
2022-12-08T00:17:33.103Z,-5.06
2022-12-08T00:18:33.102Z,-5.20
2022-12-08T00:19:33.078Z,-5.03
2022-12-08T00:20:33.092Z,-5.11
2022-12-08T00:21:33.059Z,-5.27
2022-12-08T00:22:33.044Z,-5.33
2022-12-08T00:23:33.061Z,-5.35
2022-12-08T00:24:33.048Z,-5.31
2022-12-08T00:25:33.016Z,-5.25
2022-12-08T00:26:33.019Z,-5.42
2022-12-08T00:27:32.994Z,-5.42
2022-12-08T00:28:32.985Z,-5.48
2022-12-08T00:29:32.976Z,-5.52
2022-12-08T00:30:32.964Z,-5.24
2022-12-08T00:31:33.072Z,-5.35
2022-12-08T00:32:32.956Z,-5.30
2022-12-08T00:33:32.930Z,-5.17
2022-12-08T00:34:32.920Z,-5.11
2022-12-08T00:35:32.915Z,-5.05
2022-12-08T00:36:32.895Z,-5.21
2022-12-08T00:37:32.889Z,-5.31
2022-12-08T00:38:32.886Z,-5.16
2022-12-08T00:39:32.891Z,-5.06
2022-12-08T00:40:32.867Z,-5.06
2022-12-08T00:41:32.847Z,-5.12
2022-12-08T00:42:32.842Z,-5.09
2022-12-08T00:43:32.843Z,-5.13
2022-12-08T00:44:32.815Z,-5.13
2022-12-08T00:45:32.901Z,-5.21
2022-12-08T00:46:32.871Z,-5.23
2022-12-08T00:47:32.786Z,-5.12
2022-12-08T00:48:32.772Z,-5.08
2022-12-08T00:49:32.776Z,-4.97
2022-12-08T00:50:32.759Z,-4.97
2022-12-08T00:51:32.743Z,-4.99
2022-12-08T00:52:32.734Z,-4.93
2022-12-08T00:53:32.721Z,-4.99
2022-12-08T00:54:32.711Z,-5.08
2022-12-08T00:55:32.832Z,-4.99
2022-12-08T00:56:32.694Z,-5.21
2022-12-08T00:57:32.680Z,-5.25
2022-12-08T00:58:32.675Z,-5.33
2022-12-08T00:59:32.659Z,-5.30
2022-12-08T01:00:32.649Z,-5.38
2022-12-08T01:01:32.700Z,-5.30
2022-12-08T01:02:32.627Z,-5.34
2022-12-08T01:03:32.684Z,-5.41
2022-12-08T01:04:32.606Z,-5.38
2022-12-08T01:05:32.602Z,-5.39
2022-12-08T01:06:32.584Z,-5.39
2022-12-08T01:07:32.587Z,-5.63
2022-12-08T01:08:32.562Z,-5.64
2022-12-08T01:09:32.558Z,-5.66
2022-12-08T01:10:32.547Z,-5.71
2022-12-08T01:11:32.578Z,-5.70
2022-12-08T01:12:32.520Z,-5.70
2022-12-08T01:13:32.511Z,-5.91
2022-12-08T01:14:32.524Z,-5.82
2022-12-08T01:15:32.503Z,-5.70
2022-12-08T01:16:32.558Z,-5.70
2022-12-08T01:17:32.469Z,-5.67
2022-12-08T01:18:32.457Z,-5.71
2022-12-08T01:19:32.450Z,-5.52
2022-12-08T01:20:32.439Z,-5.69
2022-12-08T01:21:32.428Z,-5.67
2022-12-08T01:22:32.432Z,-5.81
2022-12-08T01:23:32.412Z,-5.55
2022-12-08T01:24:32.398Z,-5.41
2022-12-08T01:25:32.390Z,-5.45
2022-12-08T01:26:32.374Z,-5.48
2022-12-08T01:27:32.393Z,-5.63
2022-12-08T01:28:32.367Z,-5.69
2022-12-08T01:29:32.346Z,-5.70
2022-12-08T01:30:32.402Z,-5.64
2022-12-08T01:31:32.325Z,-5.51
2022-12-08T01:32:32.318Z,-5.48
2022-12-08T01:33:32.306Z,-5.39
2022-12-08T01:34:32.295Z,-5.43
2022-12-08T01:35:32.287Z,-5.62
2022-12-08T01:36:32.289Z,-5.51
2022-12-08T01:37:32.265Z,-5.55
2022-12-08T01:38:32.264Z,-5.63
2022-12-08T01:39:32.244Z,-5.64
2022-12-08T01:40:32.235Z,-5.49
2022-12-08T01:41:32.220Z,-5.49
2022-12-08T01:42:32.213Z,-5.43
2022-12-08T01:43:32.243Z,-5.33
2022-12-08T01:44:32.195Z,-5.34
2022-12-08T01:45:32.186Z,-5.16
2022-12-08T01:46:32.237Z,-5.13
2022-12-08T01:47:32.197Z,-5.20
2022-12-08T01:48:32.146Z,-5.33
2022-12-08T01:49:32.140Z,-5.30
2022-12-08T01:50:32.128Z,-5.12
2022-12-08T01:51:32.118Z,-5.17
2022-12-08T01:52:32.121Z,-5.09
2022-12-08T01:53:32.109Z,-4.94
2022-12-08T01:54:32.086Z,-4.88
2022-12-08T01:55:32.084Z,-4.83
2022-12-08T01:56:32.067Z,-4.88
2022-12-08T01:57:32.057Z,-5.01
2022-12-08T01:58:32.045Z,-4.94
2022-12-08T01:59:32.079Z,-4.87
2022-12-08T02:00:32.038Z,-4.74
2022-12-08T02:01:32.120Z,-4.97
2022-12-08T02:02:32.063Z,-4.81
2022-12-08T02:03:31.994Z,-4.88
2022-12-08T02:04:31.994Z,-4.83
2022-12-08T02:05:31.989Z,-4.94
2022-12-08T02:06:31.964Z,-4.79
2022-12-08T02:07:31.951Z,-4.72
2022-12-08T02:08:31.943Z,-4.84
2022-12-08T02:09:31.931Z,-4.93
2022-12-08T02:10:31.939Z,-4.94
2022-12-08T02:11:31.917Z,-4.94
2022-12-08T02:12:31.899Z,-4.95
2022-12-08T02:13:31.891Z,-4.97
2022-12-08T02:14:31.884Z,-5.16
2022-12-08T02:15:31.970Z,-5.11
2022-12-08T02:16:31.964Z,-5.20
2022-12-08T02:17:31.849Z,-5.34
2022-12-08T02:18:31.860Z,-5.33
2022-12-08T02:19:32.066Z,-5.35
2022-12-08T02:20:31.818Z,-5.41
2022-12-08T02:21:31.819Z,-5.33
2022-12-08T02:22:31.820Z,-5.24
2022-12-08T02:23:31.814Z,-5.11
2022-12-08T02:24:31.808Z,-5.11
2022-12-08T02:25:31.767Z,-4.99
2022-12-08T02:26:31.759Z,-4.91
2022-12-08T02:27:31.755Z,-4.81
2022-12-08T02:28:31.731Z,-4.84
2022-12-08T02:29:31.725Z,-4.85
2022-12-08T02:30:31.797Z,-4.83
2022-12-08T02:31:31.727Z,-4.94
2022-12-08T02:32:31.706Z,-4.91
2022-12-08T02:33:31.684Z,-5.02
2022-12-08T02:34:31.673Z,-5.06
2022-12-08T02:35:31.663Z,-5.13
2022-12-08T02:36:31.662Z,-5.11
2022-12-08T02:37:31.638Z,-5.09
2022-12-08T02:38:31.645Z,-5.12
2022-12-08T02:39:31.620Z,-5.25
2022-12-08T02:40:31.609Z,-5.13
2022-12-08T02:41:31.597Z,-5.12
2022-12-08T02:42:31.603Z,-5.09
2022-12-08T02:43:31.577Z,-5.09
2022-12-08T02:44:31.576Z,-4.95
2022-12-08T02:45:31.567Z,-5.17
2022-12-08T02:46:31.641Z,-5.17
2022-12-08T02:47:31.572Z,-5.17
2022-12-08T02:48:31.525Z,-5.16
2022-12-08T02:49:31.523Z,-5.21
2022-12-08T02:50:31.504Z,-5.06
2022-12-08T02:51:31.491Z,-5.09
2022-12-08T02:52:31.498Z,-5.24
2022-12-08T02:53:31.469Z,-5.23
2022-12-08T02:54:31.465Z,-5.43
2022-12-08T02:55:31.447Z,-5.42
2022-12-08T02:56:31.436Z,-5.30
2022-12-08T02:57:31.428Z,-5.23
2022-12-08T02:58:31.427Z,-4.97
2022-12-08T02:59:31.405Z,-4.95
2022-12-08T03:00:31.397Z,-4.95
2022-12-08T03:01:31.493Z,-5.12
2022-12-08T03:02:31.448Z,-5.11
2022-12-08T03:03:31.406Z,-4.97
2022-12-08T03:04:31.357Z,-5.01
2022-12-08T03:05:31.344Z,-5.01
2022-12-08T03:06:31.332Z,-5.01
2022-12-08T03:07:31.332Z,-4.90
2022-12-08T03:08:31.455Z,-4.88
2022-12-08T03:09:31.304Z,-4.84
2022-12-08T03:10:31.302Z,-4.97
2022-12-08T03:11:31.285Z,-4.90
2022-12-08T03:12:31.275Z,-4.91
2022-12-08T03:13:31.260Z,-4.87
2022-12-08T03:14:31.251Z,-4.77
2022-12-08T03:15:31.308Z,-4.77
2022-12-08T03:16:31.274Z,-4.85
2022-12-08T03:17:31.222Z,-4.85
2022-12-08T03:18:31.211Z,-4.69
2022-12-08T03:19:31.235Z,-4.77
2022-12-08T03:20:31.190Z,-4.70
2022-12-08T03:21:31.173Z,-4.76
2022-12-08T03:22:31.168Z,-4.77
2022-12-08T03:23:31.168Z,-4.70
2022-12-08T03:24:31.174Z,-4.76
2022-12-08T03:25:31.134Z,-4.70
2022-12-08T03:26:31.123Z,-4.59
2022-12-08T03:27:31.114Z,-4.62
2022-12-08T03:28:31.101Z,-4.72
2022-12-08T03:29:31.088Z,-4.79
2022-12-08T03:30:31.095Z,-4.69
2022-12-08T03:31:31.134Z,-4.67
2022-12-08T03:32:31.058Z,-4.56
2022-12-08T03:33:31.052Z,-4.52
2022-12-08T03:34:31.038Z,-4.63
2022-12-08T03:35:31.069Z,-4.48
2022-12-08T03:36:31.019Z,-4.55
2022-12-08T03:37:31.008Z,-4.48
2022-12-08T03:38:31.014Z,-4.49
2022-12-08T03:39:30.983Z,-4.54
2022-12-08T03:40:30.992Z,-4.59
2022-12-08T03:41:30.964Z,-4.45
2022-12-08T03:42:30.956Z,-4.45
2022-12-08T03:43:30.948Z,-4.44
2022-12-08T03:44:30.932Z,-4.40
2022-12-08T03:45:30.928Z,-4.38
2022-12-08T03:46:30.922Z,-4.63
2022-12-08T03:47:30.903Z,-4.52
2022-12-08T03:48:30.896Z,-4.54
2022-12-08T03:49:30.883Z,-4.51
2022-12-08T03:50:30.867Z,-4.66
2022-12-08T03:51:30.886Z,-4.52
2022-12-08T03:52:30.866Z,-4.56
2022-12-08T03:53:30.841Z,-4.54
2022-12-08T03:54:30.836Z,-4.48
2022-12-08T03:55:30.822Z,-4.63
2022-12-08T03:56:30.812Z,-4.56
2022-12-08T03:57:30.793Z,-4.56
2022-12-08T03:58:37.036Z,-4.54
2022-12-08T03:59:31.770Z,-4.59
2022-12-08T04:00:30.764Z,-4.51
2022-12-08T04:01:30.850Z,-4.51
2022-12-08T04:02:30.874Z,-4.63
2022-12-08T04:03:30.732Z,-4.54
2022-12-08T04:04:30.730Z,-4.54
2022-12-08T04:05:30.712Z,-4.51
2022-12-08T04:06:30.695Z,-4.45
2022-12-08T04:07:30.712Z,-4.63
2022-12-08T04:08:30.684Z,-4.52
2022-12-08T04:09:30.679Z,-4.49
2022-12-08T04:10:30.656Z,-4.62
2022-12-08T04:11:30.646Z,-4.66
2022-12-08T04:12:30.636Z,-4.59
2022-12-08T04:13:30.628Z,-4.58
2022-12-08T04:14:30.632Z,-4.69
2022-12-08T04:15:30.607Z,-4.58
2022-12-08T04:16:30.671Z,-4.66
2022-12-08T04:17:30.579Z,-4.69
2022-12-08T04:18:30.573Z,-4.73
2022-12-08T04:19:30.565Z,-4.81
2022-12-08T04:20:30.566Z,-4.70
2022-12-08T04:21:30.550Z,-4.76
2022-12-08T04:22:30.531Z,-4.67
2022-12-08T04:23:30.540Z,-4.76
2022-12-08T04:24:30.509Z,-4.73
2022-12-08T04:25:30.498Z,-4.74
2022-12-08T04:26:30.501Z,-4.59
2022-12-08T04:27:30.482Z,-4.65
2022-12-08T04:28:30.466Z,-4.51
2022-12-08T04:29:30.455Z,-4.56
2022-12-08T04:30:30.449Z,-4.54
2022-12-08T04:31:30.532Z,-4.66
2022-12-08T04:32:30.437Z,-4.55
2022-12-08T04:33:30.414Z,-4.66
2022-12-08T04:34:30.405Z,-4.63
2022-12-08T04:35:30.392Z,-4.55
2022-12-08T04:36:30.377Z,-4.51
2022-12-08T04:37:30.385Z,-4.40
2022-12-08T04:38:30.358Z,-4.41
2022-12-08T04:39:30.372Z,-4.49
2022-12-08T04:40:30.339Z,-4.30
2022-12-08T04:41:30.337Z,-4.26
2022-12-08T04:42:30.313Z,-4.49
2022-12-08T04:43:30.320Z,-4.48
2022-12-08T04:44:30.297Z,-4.51
2022-12-08T04:45:30.286Z,-4.62
2022-12-08T04:46:30.371Z,-4.54
2022-12-08T04:47:30.265Z,-4.73
2022-12-08T04:48:30.271Z,-4.62
2022-12-08T04:49:30.243Z,-4.62
2022-12-08T04:50:30.231Z,-4.59
2022-12-08T04:51:30.219Z,-4.59
2022-12-08T04:52:30.208Z,-4.54
2022-12-08T04:53:30.199Z,-4.59
2022-12-08T04:54:30.203Z,-4.72
2022-12-08T04:55:30.203Z,-4.85
2022-12-08T04:56:30.164Z,-4.69
2022-12-08T04:57:30.161Z,-4.77
2022-12-08T04:58:30.148Z,-4.73
2022-12-08T04:59:30.137Z,-4.55
2022-12-08T05:00:30.142Z,-4.59
2022-12-08T05:01:30.197Z,-4.51
2022-12-08T05:02:30.170Z,-4.69
2022-12-08T05:03:30.094Z,-4.46
2022-12-08T05:04:30.081Z,-4.52
2022-12-08T05:05:30.075Z,-4.56
2022-12-08T05:06:30.071Z,-4.49
2022-12-08T05:07:30.075Z,-4.37
2022-12-08T05:08:30.186Z,-4.34
2022-12-08T05:09:30.032Z,-4.23
2022-12-08T05:10:30.018Z,-4.34
2022-12-08T05:11:30.034Z,-4.38
2022-12-08T05:12:30.014Z,-4.33
2022-12-08T05:13:30.026Z,-4.37
2022-12-08T05:14:29.975Z,-4.49
2022-12-08T05:15:29.965Z,-4.46
2022-12-08T05:16:30.062Z,-4.49
2022-12-08T05:17:29.948Z,-4.48
2022-12-08T05:18:29.957Z,-4.40
2022-12-08T05:19:29.925Z,-4.44
2022-12-08T05:20:29.927Z,-4.45
2022-12-08T05:21:29.900Z,-4.44
2022-12-08T05:22:29.893Z,-4.38
2022-12-08T05:23:29.897Z,-4.30
2022-12-08T05:24:29.874Z,-4.30
2022-12-08T05:25:29.864Z,-4.23
2022-12-08T05:26:29.849Z,-4.17
2022-12-08T05:27:29.867Z,-4.23
2022-12-08T05:28:41.150Z,-4.26
2022-12-08T05:29:30.824Z,-4.31
2022-12-08T05:30:29.808Z,-4.34
2022-12-08T05:31:29.905Z,-4.10
2022-12-08T05:32:29.789Z,-4.20
2022-12-08T05:33:29.781Z,-4.19
2022-12-08T05:34:29.776Z,-4.28
2022-12-08T05:35:29.752Z,-4.17
2022-12-08T05:36:29.951Z,-4.13
2022-12-08T05:37:29.730Z,-4.20
2022-12-08T05:38:29.721Z,-4.27
2022-12-08T05:39:29.720Z,-4.09
2022-12-08T05:40:29.698Z,-4.30
2022-12-08T05:41:29.691Z,-4.16
2022-12-08T05:42:29.678Z,-4.20
2022-12-08T05:43:29.693Z,-4.23
2022-12-08T05:44:29.659Z,-4.28
2022-12-08T05:45:29.710Z,-4.13
2022-12-08T05:46:29.654Z,-4.31
2022-12-08T05:47:33.130Z,-4.34
2022-12-08T05:48:30.612Z,-4.10
2022-12-08T05:49:29.607Z,-4.15
2022-12-08T05:50:29.602Z,-4.13
2022-12-08T05:51:29.596Z,-4.36
2022-12-08T05:52:29.572Z,-4.30
2022-12-08T05:53:29.576Z,-4.20
2022-12-08T05:54:29.572Z,-4.23
2022-12-08T05:55:29.573Z,-4.28
2022-12-08T05:56:29.529Z,-4.17
2022-12-08T05:57:29.517Z,-4.15
2022-12-08T05:58:29.506Z,-4.26
2022-12-08T05:59:29.534Z,-4.22
2022-12-08T06:00:29.486Z,-4.28
2022-12-08T06:01:29.517Z,-4.27
2022-12-08T06:02:29.691Z,-4.16
2022-12-08T06:03:29.589Z,-4.28
2022-12-08T06:04:29.442Z,-4.23
2022-12-08T06:05:29.454Z,-4.31
2022-12-08T06:06:29.432Z,-4.27
2022-12-08T06:07:29.431Z,-4.36
2022-12-08T06:08:29.515Z,-4.16
2022-12-08T06:09:29.395Z,-4.19
2022-12-08T06:10:29.387Z,-4.16
2022-12-08T06:11:29.385Z,-4.27
2022-12-08T06:12:29.356Z,-4.22
2022-12-08T06:13:29.349Z,-4.23
2022-12-08T06:14:29.333Z,-4.19
2022-12-08T06:15:29.348Z,-4.12
2022-12-08T06:16:29.413Z,-4.09
2022-12-08T06:17:29.307Z,-4.27
2022-12-08T06:18:32.733Z,-4.26
2022-12-08T06:19:29.285Z,-4.26
2022-12-08T06:20:29.280Z,-4.15
2022-12-08T06:21:29.264Z,-4.22
2022-12-08T06:22:29.252Z,-4.19
2022-12-08T06:23:29.236Z,-4.17
2022-12-08T06:24:29.230Z,-4.28
2022-12-08T06:25:29.228Z,-4.26
2022-12-08T06:26:29.207Z,-4.38
2022-12-08T06:27:29.196Z,-4.27
2022-12-08T06:28:29.193Z,-4.20
2022-12-08T06:29:29.188Z,-4.23
2022-12-08T06:30:29.166Z,-4.22
2022-12-08T06:31:29.267Z,-4.04
2022-12-08T06:32:29.189Z,-4.33
2022-12-08T06:33:29.147Z,-4.20
2022-12-08T06:34:29.134Z,-4.15
2022-12-08T06:35:29.117Z,-4.23
2022-12-08T06:36:29.099Z,-4.10
2022-12-08T06:37:29.092Z,-4.22
2022-12-08T06:38:29.102Z,-4.15
2022-12-08T06:39:29.068Z,-4.01
2022-12-08T06:40:29.061Z,-4.12
2022-12-08T06:41:29.045Z,-4.15
2022-12-08T06:42:29.038Z,-4.16
2022-12-08T06:43:29.026Z,-4.07
2022-12-08T06:44:29.029Z,-4.30
2022-12-08T06:45:29.115Z,-4.30
2022-12-08T06:46:29.088Z,-4.33
2022-12-08T06:47:29.012Z,-4.36
2022-12-08T06:48:28.975Z,-4.40
2022-12-08T06:49:28.977Z,-4.33
2022-12-08T06:50:28.952Z,-4.33
2022-12-08T06:51:28.945Z,-4.37
2022-12-08T06:52:28.956Z,-4.30
2022-12-08T06:53:28.919Z,-4.22
2022-12-08T06:54:28.913Z,-4.17
2022-12-08T06:55:58.954Z,-4.19
2022-12-08T06:56:29.883Z,-4.13
2022-12-08T06:57:28.878Z,-4.13
2022-12-08T06:58:28.884Z,-4.10
2022-12-08T06:59:28.858Z,-4.22
2022-12-08T07:00:28.846Z,-4.16
2022-12-08T07:01:28.910Z,-4.10
2022-12-08T07:02:28.878Z,-4.12
2022-12-08T07:03:28.865Z,-4.33
2022-12-08T07:04:28.818Z,-4.10
2022-12-08T07:05:28.794Z,-4.16
2022-12-08T07:06:28.780Z,-4.13
2022-12-08T07:07:28.771Z,-4.17
2022-12-08T07:08:28.910Z,-4.19
2022-12-08T07:09:28.751Z,-4.17
2022-12-08T07:10:28.830Z,-4.33
2022-12-08T07:11:28.724Z,-4.15
2022-12-08T07:12:28.714Z,-4.20
2022-12-08T07:13:28.706Z,-4.16
2022-12-08T07:14:28.698Z,-4.46
2022-12-08T07:15:28.685Z,-4.36
2022-12-08T07:16:28.726Z,-4.45
2022-12-08T07:17:28.669Z,-4.37
2022-12-08T07:18:28.655Z,-4.17
2022-12-08T07:19:28.672Z,-4.16
2022-12-08T07:20:28.817Z,-4.13
2022-12-08T07:21:28.644Z,-4.13
2022-12-08T07:22:28.614Z,-3.95
2022-12-08T07:23:28.602Z,-4.01
2022-12-08T07:24:28.589Z,-4.16
2022-12-08T07:25:28.580Z,-4.19
2022-12-08T07:26:28.571Z,-4.10
2022-12-08T07:27:28.578Z,-4.07
2022-12-08T07:28:28.545Z,-3.89
2022-12-08T07:29:28.537Z,-3.94
2022-12-08T07:30:28.725Z,-3.94
2022-12-08T07:31:28.633Z,-3.91
2022-12-08T07:32:28.509Z,-3.91
2022-12-08T07:33:28.505Z,-3.94
2022-12-08T07:34:28.484Z,-3.97
2022-12-08T07:35:28.496Z,-3.84
2022-12-08T07:36:28.460Z,-3.98
2022-12-08T07:37:28.446Z,-3.86
2022-12-08T07:38:28.467Z,-4.02
2022-12-08T07:39:28.428Z,-3.86
2022-12-08T07:40:28.472Z,-3.94
2022-12-08T07:41:28.408Z,-3.98
2022-12-08T07:42:28.398Z,-3.89
2022-12-08T07:43:28.393Z,-3.95
2022-12-08T07:44:28.395Z,-3.92
2022-12-08T07:45:31.637Z,-3.81
2022-12-08T07:46:28.411Z,-3.80
2022-12-08T07:47:28.351Z,-3.80
2022-12-08T07:48:28.335Z,-3.84
2022-12-08T07:49:28.325Z,-3.72
2022-12-08T07:50:28.327Z,-3.68
2022-12-08T07:51:28.326Z,-3.74
2022-12-08T07:52:28.299Z,-3.68
2022-12-08T07:53:28.279Z,-3.76
2022-12-08T07:54:28.282Z,-3.76
2022-12-08T07:55:28.259Z,-3.76
2022-12-08T07:56:28.253Z,-3.68
2022-12-08T07:57:28.239Z,-3.61
2022-12-08T07:58:28.233Z,-3.57
2022-12-08T07:59:28.234Z,-3.65
2022-12-08T08:00:28.368Z,-3.59
2022-12-08T08:01:28.335Z,-3.68
2022-12-08T08:02:28.352Z,-3.69
2022-12-08T08:03:28.180Z,-3.61
2022-12-08T08:04:28.226Z,-3.72
2022-12-08T08:05:28.165Z,-3.54
2022-12-08T08:06:28.146Z,-3.68
2022-12-08T08:07:28.262Z,-3.59
2022-12-08T08:08:28.212Z,-3.68
2022-12-08T08:09:28.111Z,-3.64
2022-12-08T08:10:28.126Z,-3.57
2022-12-08T08:11:28.089Z,-3.68
2022-12-08T08:12:32.352Z,-3.62
2022-12-08T08:13:28.068Z,-3.55
2022-12-08T08:14:28.059Z,-3.65
2022-12-08T08:15:28.155Z,-3.72
2022-12-08T08:16:31.044Z,-3.74
2022-12-08T08:17:29.433Z,-3.43
2022-12-08T08:18:28.233Z,-3.57
2022-12-08T08:19:28.012Z,-3.52
2022-12-08T08:20:27.993Z,-3.43
2022-12-08T08:22:28.988Z,-3.43
2022-12-08T08:23:27.989Z,-3.47
2022-12-08T08:24:27.945Z,-3.39
2022-12-08T08:25:27.939Z,-3.41
2022-12-08T08:26:27.932Z,-3.46
2022-12-08T08:27:27.915Z,-3.41
2022-12-08T08:28:27.923Z,-3.34
2022-12-08T08:29:27.907Z,-3.30
2022-12-08T08:30:27.889Z,-3.43
2022-12-08T08:31:27.948Z,-3.41
2022-12-08T08:32:27.868Z,-3.36
2022-12-08T08:33:27.861Z,-3.41
2022-12-08T08:34:27.863Z,-3.41
2022-12-08T08:35:27.833Z,-3.37
2022-12-08T08:36:27.833Z,-3.28
2022-12-08T08:37:27.944Z,-3.37
2022-12-08T08:38:27.802Z,-3.34
2022-12-08T08:39:27.818Z,-3.28
2022-12-08T08:40:27.789Z,-3.23
2022-12-08T08:41:27.777Z,-3.34
2022-12-08T08:42:27.768Z,-3.30
2022-12-08T08:43:31.449Z,-3.26
2022-12-08T08:44:28.751Z,-3.26
2022-12-08T08:45:27.728Z,-3.25
2022-12-08T08:46:27.774Z,-3.26
2022-12-08T08:47:27.705Z,-3.34
2022-12-08T08:48:27.693Z,-3.30
2022-12-08T08:49:27.678Z,-3.15
2022-12-08T08:50:30.530Z,-3.23
2022-12-08T08:51:28.664Z,-3.23
2022-12-08T08:52:27.653Z,-3.25
2022-12-08T08:53:27.638Z,-3.23
2022-12-08T08:54:27.629Z,-3.31
2022-12-08T08:55:27.663Z,-3.33
2022-12-08T08:56:27.619Z,-3.23
2022-12-08T08:57:27.711Z,-3.34
2022-12-08T08:58:27.584Z,-3.36
2022-12-08T08:59:27.579Z,-3.30
2022-12-08T09:00:27.568Z,-3.34
2022-12-08T09:01:27.670Z,-3.37
2022-12-08T09:02:27.547Z,-3.26
2022-12-08T09:03:27.534Z,-3.26
2022-12-08T09:04:27.650Z,-3.22
2022-12-08T09:05:27.513Z,-3.21
2022-12-08T09:06:27.539Z,-3.31
2022-12-08T09:07:27.488Z,-3.26
2022-12-08T09:08:27.537Z,-3.26
2022-12-08T09:09:27.496Z,-3.41
2022-12-08T09:10:27.463Z,-3.40
2022-12-08T09:11:27.483Z,-3.18
2022-12-08T09:12:27.441Z,-3.01
2022-12-08T09:13:27.431Z,-2.87
2022-12-08T09:14:27.414Z,-3.05
2022-12-08T09:15:27.434Z,-3.18
2022-12-08T09:16:27.464Z,-3.25
2022-12-08T09:17:27.390Z,-3.31
2022-12-08T09:18:27.375Z,-3.25
2022-12-08T09:19:27.364Z,-3.13
2022-12-08T09:20:27.358Z,-3.22
2022-12-08T09:21:27.359Z,-3.21
2022-12-08T09:22:27.332Z,-3.25
2022-12-08T09:23:30.759Z,-3.37
2022-12-08T09:24:28.311Z,-3.22
2022-12-08T09:25:27.299Z,-3.31
2022-12-08T09:26:27.311Z,-3.28
2022-12-08T09:27:27.348Z,-3.47
2022-12-08T09:28:27.268Z,-3.37
2022-12-08T09:29:32.518Z,-3.43
2022-12-08T09:30:28.249Z,-3.46
2022-12-08T09:31:27.373Z,-3.40
2022-12-08T09:32:27.240Z,-3.40
2022-12-08T09:33:27.222Z,-3.01
2022-12-08T09:34:27.218Z,-2.44
2022-12-08T09:35:27.195Z,-1.80
2022-12-08T09:36:27.202Z,-0.96
2022-12-08T09:37:27.175Z,-0.41
2022-12-08T09:38:27.164Z,-0.05
2022-12-08T09:39:27.161Z,0.38
2022-12-08T09:40:27.147Z,0.57
2022-12-08T09:41:30.817Z,0.96
2022-12-08T09:42:28.130Z,1.13
2022-12-08T09:43:27.137Z,1.38
2022-12-08T09:44:27.104Z,1.20
2022-12-08T09:45:27.100Z,1.21
2022-12-08T09:46:27.302Z,1.11
2022-12-08T09:47:32.117Z,1.39
2022-12-08T09:48:28.060Z,1.54
2022-12-08T09:49:27.051Z,1.44
2022-12-08T09:50:27.043Z,1.43
2022-12-08T09:51:27.027Z,1.32
2022-12-08T09:52:27.026Z,1.42
2022-12-08T09:53:32.029Z,1.35
2022-12-08T09:54:27.994Z,1.54
2022-12-08T09:55:27.046Z,1.77
2022-12-08T09:56:26.999Z,1.72
2022-12-08T09:57:26.960Z,1.65
2022-12-08T09:58:26.963Z,2.07
2022-12-08T09:59:27.027Z,2.04
2022-12-08T10:00:26.930Z,2.15
2022-12-08T10:01:26.949Z,2.00
2022-12-08T10:02:26.914Z,2.04
2022-12-08T10:03:26.899Z,2.25
2022-12-08T10:04:26.961Z,2.19
2022-12-08T10:05:26.992Z,1.98
2022-12-08T10:06:26.866Z,2.25
2022-12-08T10:07:26.860Z,2.27
2022-12-08T10:08:26.931Z,2.44
2022-12-08T10:09:26.855Z,2.55
2022-12-08T10:10:26.830Z,2.71
2022-12-08T10:11:26.817Z,2.87
2022-12-08T10:12:26.803Z,2.89
2022-12-08T10:13:26.788Z,3.15
2022-12-08T10:14:26.782Z,3.20
2022-12-08T10:15:26.816Z,3.07
2022-12-08T10:16:29.975Z,2.98
2022-12-08T10:17:26.761Z,2.97
2022-12-08T10:18:26.743Z,2.89
2022-12-08T10:19:26.730Z,3.13
2022-12-08T10:20:26.717Z,3.08
2022-12-08T10:21:26.741Z,3.13
2022-12-08T10:22:26.700Z,3.02
2022-12-08T10:23:26.682Z,3.05
2022-12-08T10:24:26.674Z,3.19
2022-12-08T10:25:26.668Z,3.34
2022-12-08T10:26:26.652Z,3.05
2022-12-08T10:27:26.649Z,3.01
2022-12-08T10:28:26.643Z,3.12
2022-12-08T10:29:26.623Z,3.31
2022-12-08T10:30:26.606Z,3.02
2022-12-08T10:31:26.775Z,2.87
2022-12-08T10:32:26.594Z,2.84
2022-12-08T10:33:26.573Z,2.77
2022-12-08T10:34:26.577Z,2.73
2022-12-08T10:35:26.597Z,2.65
2022-12-08T10:36:26.557Z,2.76
2022-12-08T10:37:26.536Z,3.26
2022-12-08T10:38:26.527Z,3.12
2022-12-08T10:39:26.517Z,3.26
2022-12-08T10:40:26.554Z,3.17
2022-12-08T10:41:26.504Z,2.92
2022-12-08T10:42:26.482Z,2.76
2022-12-08T10:43:26.469Z,3.02
2022-12-08T10:44:26.461Z,3.10
2022-12-08T10:45:26.449Z,3.39
2022-12-08T10:46:26.538Z,3.19
2022-12-08T10:47:26.487Z,2.97
2022-12-08T10:48:26.416Z,2.69
2022-12-08T10:49:26.406Z,2.58
2022-12-08T10:50:26.403Z,2.71
2022-12-08T10:51:26.384Z,2.99
2022-12-08T10:52:26.374Z,2.71
2022-12-08T10:53:26.366Z,2.94
2022-12-08T10:54:26.376Z,2.97
2022-12-08T10:55:26.342Z,2.66
2022-12-08T10:56:26.330Z,2.69
2022-12-08T10:57:26.323Z,2.55
2022-12-08T10:58:26.309Z,2.71
2022-12-08T10:59:26.300Z,3.19
2022-12-08T11:00:26.444Z,3.15
2022-12-08T11:01:26.343Z,3.10
2022-12-08T11:02:26.378Z,3.12
2022-12-08T11:03:26.360Z,3.53
2022-12-08T11:04:26.264Z,3.52
2022-12-08T11:05:26.234Z,3.57
2022-12-08T11:06:26.239Z,3.49
2022-12-08T11:07:26.232Z,3.37
2022-12-08T11:08:26.332Z,3.44
2022-12-08T11:09:26.196Z,3.26
2022-12-08T11:10:26.184Z,3.46
2022-12-08T11:11:29.508Z,3.49
2022-12-08T11:12:26.158Z,3.41
2022-12-08T11:13:26.157Z,3.45
2022-12-08T11:14:26.193Z,3.70
2022-12-08T11:15:26.140Z,3.81
2022-12-08T11:16:26.206Z,3.68
2022-12-08T11:17:26.116Z,3.88
2022-12-08T11:18:26.097Z,3.88
2022-12-08T11:19:26.115Z,3.88
2022-12-08T11:20:26.087Z,3.71
2022-12-08T11:21:26.077Z,3.67
2022-12-08T11:22:26.070Z,4.10
2022-12-08T11:23:26.043Z,3.82
2022-12-08T11:24:26.038Z,3.78
2022-12-08T11:25:26.020Z,3.68
2022-12-08T11:26:26.016Z,3.98
2022-12-08T11:27:25.999Z,4.02
2022-12-08T11:28:26.010Z,3.70
2022-12-08T11:29:25.979Z,3.86
2022-12-08T11:30:25.966Z,4.10
2022-12-08T11:31:26.027Z,3.98
2022-12-08T11:32:25.948Z,3.80
2022-12-08T11:33:25.936Z,3.78
2022-12-08T11:34:26.030Z,3.46
2022-12-08T11:35:25.936Z,3.25
2022-12-08T11:36:25.897Z,3.26
2022-12-08T11:37:29.953Z,3.54
2022-12-08T11:38:26.880Z,3.35
2022-12-08T11:39:25.878Z,3.44
2022-12-08T11:40:25.873Z,3.46
2022-12-08T11:41:25.857Z,3.52
2022-12-08T11:42:25.845Z,3.80
2022-12-08T11:43:25.826Z,3.93
2022-12-08T11:44:25.835Z,4.00
2022-12-08T11:45:25.814Z,4.13
2022-12-08T11:46:25.872Z,3.92
2022-12-08T11:47:25.786Z,3.77
2022-12-08T11:48:25.772Z,3.41
2022-12-08T11:49:25.760Z,3.82
2022-12-08T11:50:25.761Z,4.07
2022-12-08T11:51:25.767Z,4.11
2022-12-08T11:52:25.731Z,3.72
2022-12-08T11:53:25.719Z,3.60
2022-12-08T11:54:25.703Z,3.89
2022-12-08T11:55:25.717Z,3.89
2022-12-08T11:56:25.694Z,4.16
2022-12-08T11:57:25.681Z,3.89
2022-12-08T11:58:25.789Z,4.21
2022-12-08T11:59:25.651Z,4.10
2022-12-08T12:00:25.642Z,4.24
2022-12-08T12:01:25.639Z,4.20
2022-12-08T12:02:25.688Z,3.80
2022-12-08T12:03:25.692Z,3.62
2022-12-08T12:04:25.600Z,3.64
2022-12-08T12:05:46.749Z,3.74
2022-12-08T12:06:55.783Z,3.56
2022-12-08T12:07:26.786Z,3.86
2022-12-08T12:08:25.665Z,3.90
2022-12-08T12:09:25.552Z,4.06
2022-12-08T12:10:25.533Z,3.90
2022-12-08T12:11:25.537Z,3.86
2022-12-08T12:12:25.519Z,3.89
2022-12-08T12:13:25.502Z,3.90
2022-12-08T12:14:25.490Z,3.64
2022-12-08T12:15:25.479Z,3.20
2022-12-08T12:16:25.552Z,3.20
2022-12-08T12:17:25.479Z,3.22
2022-12-08T12:18:25.447Z,3.26
2022-12-08T12:19:25.432Z,3.07
2022-12-08T12:20:25.427Z,3.23
2022-12-08T12:21:25.419Z,3.50
2022-12-08T12:22:25.404Z,3.78
2022-12-08T12:23:25.427Z,3.93
2022-12-08T12:24:27.559Z,3.63
2022-12-08T12:25:26.384Z,3.92
2022-12-08T12:26:25.378Z,3.96
2022-12-08T12:27:25.380Z,3.84
2022-12-08T12:28:25.338Z,4.11
2022-12-08T12:29:25.355Z,4.32
2022-12-08T12:30:25.396Z,4.04
2022-12-08T12:31:25.335Z,3.96
2022-12-08T12:32:25.297Z,3.95
2022-12-08T12:33:25.287Z,4.25
2022-12-08T12:34:25.284Z,4.39
2022-12-08T12:35:27.370Z,4.18
2022-12-08T12:36:25.279Z,4.16
2022-12-08T12:37:25.247Z,4.13
2022-12-08T12:38:25.230Z,4.47
2022-12-08T12:39:25.280Z,4.53
2022-12-08T12:40:25.232Z,4.83
2022-12-08T12:41:25.625Z,4.53
2022-12-08T12:42:25.187Z,4.17
2022-12-08T12:43:25.174Z,3.95
2022-12-08T12:44:25.167Z,4.06
2022-12-08T12:45:25.159Z,3.98
2022-12-08T12:46:25.249Z,3.98
2022-12-08T12:47:25.138Z,3.98
2022-12-08T12:48:25.131Z,3.98
2022-12-08T12:49:25.112Z,3.93
2022-12-08T12:50:25.109Z,4.16
2022-12-08T12:51:25.097Z,4.26
2022-12-08T12:52:25.108Z,4.35
2022-12-08T12:53:25.073Z,4.08
2022-12-08T12:54:25.232Z,3.80
2022-12-08T12:55:25.073Z,3.59
2022-12-08T12:56:25.037Z,3.56
2022-12-08T12:57:25.044Z,3.33
2022-12-08T12:58:25.027Z,3.56
2022-12-08T12:59:25.093Z,3.49
2022-12-08T13:00:25.014Z,3.67